Time;durP1;ratioP1;P1;durP2;ratioP2;P2;SDS_P1;SDS_P2;PMS_P1;PMS_P2;Temp;Humidity;BMP_temperature;BMP_pressure;BME280_temperature;BME280_humidity;BME280_pressure;Samples;Min_cycle;Max_cycle;Signal;HPM_P1;HPM_P2
2023/06/02 00:01:17;;;;;;;2.78;0.90;;;;;;;20.43;35.83;102086.88;16116988;19;131120;-43
2023/06/02 00:06:39;;;;;;;4.13;1.17;;;;;;;20.42;36.13;102074.06;16120576;19;130800;-45
2023/06/02 00:12:01;;;;;;;3.58;1.10;;;;;;;20.42;35.98;102085.19;16115862;19;130050;-41
2023/06/02 00:17:23;;;;;;;5.38;0.90;;;;;;;20.39;35.83;102080.91;16119860;19;129528;-44
2023/06/02 00:22:46;;;;;;;5.28;1.60;;;;;;;20.39;35.85;102085.63;16117826;19;130589;-41
2023/06/02 00:28:08;;;;;;;5.63;1.15;;;;;;;20.37;36.04;102082.22;16113511;19;130253;-43
2023/06/02 00:33:30;;;;;;;3.83;1.02;;;;;;;20.36;35.70;102086.06;16115726;19;129511;-48
2023/06/02 00:38:52;;;;;;;8.20;1.20;;;;;;;20.36;35.68;102081.38;16116542;19;132144;-45
2023/06/02 00:44:15;;;;;;;2.40;0.90;;;;;;;20.36;35.77;102074.97;16113592;19;130492;-44
2023/06/02 00:49:37;;;;;;;3.28;0.90;;;;;;;20.33;35.67;102075.41;16115874;19;130187;-45
2023/06/02 00:55:03;;;;;;;2.33;1.00;;;;;;;20.33;35.63;102078.19;16113181;19;130444;-42
2023/06/02 01:00:26;;;;;;;3.58;1.00;;;;;;;20.33;35.97;102072.63;16117339;19;131065;-46
2023/06/02 01:05:52;;;;;;;5.20;1.30;;;;;;;20.31;35.79;102074.81;16111310;19;130221;-45
2023/06/02 01:11:14;;;;;;;5.47;1.30;;;;;;;20.28;35.96;102078.88;16118599;19;129979;-41
2023/06/02 01:16:38;;;;;;;4.40;0.95;;;;;;;20.27;35.88;102078.06;16116241;19;130442;-45
2023/06/02 01:22:03;;;;;;;7.80;1.30;;;;;;;20.25;35.65;102082.97;16117284;19;130939;-44
2023/06/02 01:27:25;;;;;;;3.45;1.20;;;;;;;20.24;35.69;102084.06;16113914;19;130388;-41
2023/06/02 01:33:01;;;;;;;2.72;0.80;;;;;;;20.27;35.76;102078.06;16110007;19;130050;-43
2023/06/02 01:38:27;;;;;;;4.05;1.10;;;;;;;20.27;35.79;102077.19;16107401;19;129402;-45
2023/06/02 01:43:49;;;;;;;7.13;1.23;;;;;;;20.25;35.47;102080.19;16114730;19;130864;-44
2023/06/02 01:49:15;;;;;;;5.13;1.10;;;;;;;20.25;35.52;102074.66;16114404;19;132256;-41
2023/06/02 01:54:37;;;;;;;4.05;1.20;;;;;;;20.22;35.42;102080.66;16113599;19;130104;-44
2023/06/02 01:59:59;;;;;;;4.55;1.48;;;;;;;20.21;35.49;102081.72;16112317;19;129905;-42
2023/06/02 02:05:21;;;;;;;3.33;1.25;;;;;;;20.18;35.22;102079.44;16112007;19;131371;-41
2023/06/02 02:10:43;;;;;;;4.63;1.58;;;;;;;20.18;35.64;102079.44;16110719;19;130057;-42
2023/06/02 02:16:05;;;;;;;3.47;0.98;;;;;;;20.18;35.70;102082.22;16107111;19;130816;-48
2023/06/02 02:21:27;;;;;;;5.40;1.23;;;;;;;20.17;35.23;102077.72;16111434;19;129320;-43
2023/06/02 02:26:49;;;;;;;2.65;0.95;;;;;;;20.16;35.52;102081.59;16109021;19;129840;-41
2023/06/02 02:32:11;;;;;;;3.92;1.45;;;;;;;20.17;35.68;102085.19;16106033;19;130375;-41
2023/06/02 02:37:35;;;;;;;5.68;1.05;;;;;;;20.15;35.66;102071.53;16109250;19;132357;-44
2023/06/02 02:43:07;;;;;;;2.72;0.90;;;;;;;20.16;35.68;102075.16;16112201;19;131602;-43
2023/06/02 02:48:29;;;;;;;5.63;1.55;;;;;;;20.17;35.79;102072.19;16111478;19;129585;-42
2023/06/02 02:53:51;;;;;;;5.90;1.50;;;;;;;20.16;35.45;102076.03;16113898;19;130383;-44
2023/06/02 02:59:13;;;;;;;4.38;1.25;;;;;;;20.16;35.30;102067.69;16105074;19;129351;-48
2023/06/02 03:04:34;;;;;;;4.95;1.00;;;;;;;20.17;35.29;102072.19;16105525;19;131076;-47
2023/06/02 03:09:56;;;;;;;5.07;1.10;;;;;;;20.17;35.38;102077.72;16107047;19;130792;-42
2023/06/02 03:15:19;;;;;;;6.53;1.10;;;;;;;20.17;35.60;102083.28;16108425;19;130462;-45
2023/06/02 03:20:41;;;;;;;3.13;1.13;;;;;;;20.17;35.64;102087.97;16107117;19;130790;-45
2023/06/02 03:26:03;;;;;;;7.10;1.30;;;;;;;20.16;35.38;102087.13;16108099;19;129527;-41
2023/06/02 03:31:25;;;;;;;5.50;1.50;;;;;;;20.14;35.68;102089.28;16104617;19;131333;-43
2023/06/02 03:36:48;;;;;;;4.03;1.30;;;;;;;20.14;35.58;102083.75;16104339;19;130641;-42
2023/06/02 03:42:10;;;;;;;7.32;1.70;;;;;;;20.14;35.55;102081.78;16105683;19;131924;-43
2023/06/02 03:47:32;;;;;;;4.60;1.20;;;;;;;20.13;35.46;102085.66;16107279;19;129784;-46
2023/06/02 03:52:54;;;;;;;2.67;1.00;;;;;;;20.12;35.33;102086.72;16102491;19;131483;-44
2023/06/02 03:58:17;;;;;;;4.50;1.20;;;;;;;20.13;35.69;102076.47;16102322;19;129683;-44
2023/06/02 04:03:41;;;;;;;5.30;1.42;;;;;;;20.12;35.48;102080.34;16108136;19;130698;-43
2023/06/02 04:09:03;;;;;;;5.68;1.63;;;;;;;20.12;35.53;102085.88;16101338;19;129285;-43
2023/06/02 04:14:27;;;;;;;7.03;1.48;;;;;;;20.11;35.70;102078.63;16107054;19;130870;-42
2023/06/02 04:19:49;;;;;;;5.63;1.85;;;;;;;20.10;35.27;102076.94;16102700;19;130425;-45
2023/06/02 04:25:11;;;;;;;6.15;1.50;;;;;;;20.09;35.24;102080.78;16114021;19;131386;-46
2023/06/02 04:30:36;;;;;;;5.28;1.52;;;;;;;20.06;35.23;102086.81;16117901;19;134182;-41
2023/06/02 04:35:58;;;;;;;5.80;1.55;;;;;;;20.03;35.23;102087.25;16115022;19;130450;-46
2023/06/02 04:41:22;;;;;;;6.60;1.52;;;;;;;20.02;35.29;102085.56;16117299;19;129762;-43
2023/06/02 04:46:44;;;;;;;5.05;1.45;;;;;;;20.03;35.37;102096.44;16120397;19;130241;-44
2023/06/02 04:52:07;;;;;;;4.13;1.30;;;;;;;20.03;35.16;102098.38;16117262;19;130633;-43
2023/06/02 04:57:29;;;;;;;7.22;1.58;;;;;;;20.02;35.44;102107.78;16110721;19;131421;-41
2023/06/02 05:02:51;;;;;;;6.55;1.70;;;;;;;20.01;35.24;102101.34;16116781;19;130838;-43
2023/06/02 05:08:13;;;;;;;5.28;1.30;;;;;;;19.97;34.96;102112.03;16107790;19;132536;-45
2023/06/02 05:13:35;;;;;;;8.07;1.90;;;;;;;19.95;34.88;102108.63;16112731;19;130839;-44
2023/06/02 05:18:58;;;;;;;6.97;2.08;;;;;;;19.93;34.79;102116.38;16109715;19;131770;-42
2023/06/02 05:24:20;;;;;;;6.05;1.67;;;;;;;19.93;35.04;102123.84;16110987;19;130066;-41
2023/06/02 05:29:41;;;;;;;6.63;1.70;;;;;;;19.91;34.92;102117.66;16114207;19;130562;-44
2023/06/02 05:35:04;;;;;;;7.88;1.98;;;;;;;19.88;35.01;102116.19;16111285;19;130022;-42
2023/06/02 05:40:25;;;;;;;3.85;1.58;;;;;;;19.87;35.07;102122.81;16112394;19;129863;-41
2023/06/02 05:45:47;;;;;;;4.15;1.45;;;;;;;19.87;34.79;102117.25;16112549;19;130625;-41
2023/06/02 05:51:09;;;;;;;5.30;1.70;;;;;;;19.88;35.09;102121.75;16110677;19;129412;-43
2023/06/02 05:56:31;;;;;;;13.13;2.17;;;;;;;19.89;34.67;102123.44;16109339;19;130465;-42
2023/06/02 06:01:53;;;;;;;18.15;2.30;;;;;;;19.89;34.79;102119.81;16114918;19;130187;-43
2023/06/02 06:07:15;;;;;;;14.50;2.17;;;;;;;19.90;35.08;102127.94;16113275;19;130039;-47
2023/06/02 06:12:37;;;;;;;14.73;2.00;;;;;;;19.91;34.74;102120.44;16115999;19;130116;-45
2023/06/02 06:17:58;;;;;;;14.68;2.20;;;;;;;19.92;35.39;102117.44;16105356;19;132946;-41
2023/06/02 06:23:20;;;;;;;8.50;1.83;;;;;;;19.91;35.19;102112.09;16109046;19;130346;-44
2023/06/02 06:28:43;;;;;;;9.60;2.33;;;;;;;19.91;35.09;102126.84;16108769;19;129525;-44
2023/06/02 06:34:05;;;;;;;6.75;1.80;;;;;;;19.91;35.01;102128.75;16109268;19;130606;-41
2023/06/02 06:39:26;;;;;;;14.23;2.00;;;;;;;19.92;34.86;102120.22;16109417;19;130336;-42
2023/06/02 06:44:51;;;;;;;7.80;1.83;;;;;;;19.93;35.07;102116.38;16107985;19;134564;-43
2023/06/02 06:50:14;;;;;;;7.87;1.87;;;;;;;19.95;34.88;102114.19;16107235;19;133958;-45
2023/06/02 06:55:36;;;;;;;7.65;1.50;;;;;;;19.97;35.15;102120.38;16107555;19;130147;-43
2023/06/02 07:00:58;;;;;;;11.00;2.08;;;;;;;19.98;35.08;102124.88;16112270;19;129745;-41
2023/06/02 07:06:20;;;;;;;8.73;1.63;;;;;;;19.98;35.24;102124.88;16105938;19;131122;-42
2023/06/02 07:11:42;;;;;;;10.85;1.70;;;;;;;20.00;34.98;102124.66;16106555;19;130775;-41
2023/06/02 07:17:04;;;;;;;6.82;2.50;;;;;;;20.00;35.29;102121.88;16105443;19;131568;-43
2023/06/02 07:22:26;;;;;;;7.60;1.92;;;;;;;19.99;34.81;102126.59;16110980;19;131924;-42
2023/06/02 07:27:48;;;;;;;9.75;1.67;;;;;;;19.99;34.77;102132.16;16108931;19;130914;-42
2023/06/02 07:33:10;;;;;;;8.75;1.92;;;;;;;20.00;34.81;102135.78;16105380;19;130954;-44
2023/06/02 07:38:32;;;;;;;7.82;1.63;;;;;;;20.01;34.69;102125.53;16105904;19;130866;-42
2023/06/02 07:43:54;;;;;;;5.25;1.70;;;;;;;20.02;34.94;102127.22;16106634;19;131325;-41
2023/06/02 07:49:16;;;;;;;5.85;1.50;;;;;;;20.02;34.68;102127.22;16104908;19;131275;-44
2023/06/02 07:54:38;;;;;;;7.00;1.75;;;;;;;20.01;34.54;102134.69;16103338;19;130066;-41
2023/06/02 08:00:14;;;;;;;11.10;1.88;;;;;;;20.04;34.66;102127.84;16118419;19;130266;-42
2023/06/02 08:05:36;;;;;;;4.72;1.70;;;;;;;20.03;34.50;102140.03;16118477;19;132023;-42
2023/06/02 08:10:59;;;;;;;5.15;1.30;;;;;;;20.04;34.69;102133.41;16116043;19;129360;-44
2023/06/02 08:16:21;;;;;;;6.80;2.03;;;;;;;20.05;34.65;102130.41;16115974;19;129701;-43
2023/06/02 08:21:52;;;;;;;7.38;1.77;;;;;;;20.07;34.29;102132.94;16121482;19;129691;-42
2023/06/02 08:27:15;;;;;;;5.57;1.50;;;;;;;20.10;34.50;102130.59;16118392;19;129662;-42
2023/06/02 08:32:37;;;;;;;5.40;1.70;;;;;;;20.12;34.39;102127.56;16119784;19;131227;-41
2023/06/02 08:38:02;;;;;;;4.50;1.38;;;;;;;20.16;34.37;102131.59;16116428;19;129441;-45
2023/06/02 08:43:24;;;;;;;5.82;1.70;;;;;;;20.17;34.18;102136.06;16116529;19;130412;-44
2023/06/02 08:48:51;;;;;;;4.72;1.60;;;;;;;20.19;33.78;102131.13;16119923;19;129461;-44
2023/06/02 08:54:13;;;;;;;6.15;1.33;;;;;;;20.20;33.87;102132.81;16115056;19;131705;-44
2023/06/02 08:59:36;;;;;;;7.60;1.65;;;;;;;20.23;33.79;102128.75;16119858;19;130534;-41
2023/06/02 09:04:59;;;;;;;8.27;2.00;;;;;;;20.27;33.42;102125.28;16114984;19;132065;-43
2023/06/02 09:10:31;;;;;;;7.40;1.83;;;;;;;20.31;33.64;102122.06;16112756;19;130911;-41
2023/06/02 09:15:58;;;;;;;6.05;1.70;;;;;;;20.34;33.80;102124.34;16115346;19;129598;-45
2023/06/02 09:21:28;;;;;;;5.28;1.52;;;;;;;20.40;33.64;102126.25;16115978;19;130155;-41
2023/06/02 09:26:50;;;;;;;5.45;1.70;;;;;;;20.42;33.62;102130.47;16118261;19;131213;-43
2023/06/02 09:32:17;;;;;;;6.13;1.63;;;;;;;20.50;33.48;102129.34;16114040;19;130085;-45
2023/06/02 09:37:57;;;;;;;7.80;1.70;;;;;;;20.56;33.51;102122.00;16114353;19;131409;-43
2023/06/02 09:43:28;;;;;;;5.32;1.67;;;;;;;20.60;33.27;102115.75;16114663;19;129587;-41
2023/06/02 09:48:57;;;;;;;9.18;2.20;;;;;;;20.62;33.24;102117.44;16113348;19;129619;-44
2023/06/02 09:54:20;;;;;;;6.07;1.80;;;;;;;20.65;33.04;102111.44;16110194;19;129255;-42
2023/06/02 09:59:44;;;;;;;8.52;2.05;;;;;;;20.67;33.12;102109.28;16111846;19;130567;-44
2023/06/02 10:05:06;;;;;;;5.72;2.08;;;;;;;20.65;33.23;102101.16;16107529;19;129882;-44
2023/06/02 10:10:38;;;;;;;8.10;1.90;;;;;;;20.66;33.14;102105.63;16110562;19;134541;-45
2023/06/02 10:16:25;;;;;;;8.00;1.95;;;;;;;20.67;32.93;102104.56;16110273;19;129379;-45
2023/06/02 10:21:53;;;;;;;7.80;1.60;;;;;;;20.67;32.94;102092.59;16109203;19;129414;-42
2023/06/02 10:27:30;;;;;;;7.45;2.20;;;;;;;20.67;32.85;102090.66;16108353;19;129506;-42
2023/06/02 10:32:53;;;;;;;7.32;1.80;;;;;;;20.64;33.21;102085.53;16103685;19;129680;-44
2023/06/02 10:38:29;;;;;;;6.00;1.70;;;;;;;20.66;32.78;102090.91;16109923;19;130397;-44
2023/06/02 10:44:22;;;;;;;10.02;1.85;;;;;;;20.64;32.70;102081.94;16107783;19;130895;-45
2023/06/02 10:49:58;;;;;;;9.65;2.08;;;;;;;20.63;32.99;102080.22;16110446;19;131325;-45
2023/06/02 10:55:20;;;;;;;8.73;1.95;;;;;;;20.63;33.16;102080.22;16108586;19;129646;-45
2023/06/02 11:00:43;;;;;;;19.80;3.83;;;;;;;20.63;33.35;102077.44;16107515;19;131130;-49
2023/06/02 11:06:18;;;;;;;20.70;4.50;;;;;;;20.63;33.77;102072.72;16108666;19;129497;-46
2023/06/02 11:11:51;;;;;;;24.30;4.47;;;;;;;20.64;33.87;102060.53;16108539;19;132611;-44
2023/06/02 11:17:33;;;;;;;19.23;4.32;;;;;;;20.66;34.22;102069.47;16109067;19;129700;-46
2023/06/02 11:23:02;;;;;;;22.00;7.60;;;;;;;20.68;34.44;102077.59;16106431;19;129632;-41
2023/06/02 11:28:24;;;;;;;22.20;5.60;;;;;;;20.68;34.41;102069.25;16111801;19;130995;-43
2023/06/02 11:33:48;;;;;;;25.10;5.00;;;;;;;20.70;34.37;102061.53;16114598;19;131139;-41
2023/06/02 11:39:11;;;;;;;21.45;5.35;;;;;;;20.74;34.55;102060.81;16123663;19;129618;-43
2023/06/02 11:44:33;;;;;;;12.20;5.38;;;;;;;20.81;34.63;102057.97;16125999;19;129536;-48
2023/06/02 11:49:55;;;;;;;16.60;4.20;;;;;;;20.84;34.18;102048.34;16123762;19;130087;-45
2023/06/02 11:55:17;;;;;;;25.58;4.93;;;;;;;20.87;34.08;102039.50;16116295;19;133954;-41
2023/06/02 12:00:40;;;;;;;16.17;4.05;;;;;;;20.86;34.33;102038.69;16116819;19;130720;-42
2023/06/02 12:06:12;;;;;;;15.05;4.32;;;;;;;20.88;34.50;102044.00;16115770;19;131712;-41
2023/06/02 12:11:35;;;;;;;15.48;3.90;;;;;;;20.87;34.49;102043.16;16123340;19;129691;-45
2023/06/02 12:17:04;;;;;;;11.05;3.63;;;;;;;20.88;33.99;102030.94;16117838;19;129780;-47
2023/06/02 12:22:27;;;;;;;16.23;4.32;;;;;;;20.87;34.35;102020.03;16120553;19;131149;-42
2023/06/02 12:27:50;;;;;;;14.90;3.33;;;;;;;20.86;34.07;102023.94;16121358;19;134274;-43
2023/06/02 12:33:12;;;;;;;11.65;3.83;;;;;;;20.85;34.13;102017.50;16115400;19;129315;-42
2023/06/02 12:38:34;;;;;;;10.32;3.25;;;;;;;20.84;34.10;102014.97;16114090;19;131239;-42
2023/06/02 12:43:56;;;;;;;7.75;3.03;;;;;;;20.81;33.47;102010.69;16114721;19;129558;-47
2023/06/02 12:49:18;;;;;;;10.93;2.92;;;;;;;20.82;33.66;102006.84;16120944;19;129644;-42
2023/06/02 12:54:40;;;;;;;10.52;3.40;;;;;;;20.80;33.30;102011.78;16122138;19;130133;-42
2023/06/02 13:00:03;;;;;;;16.05;3.33;;;;;;;20.79;33.39;102001.78;16114371;19;130929;-41
2023/06/02 13:05:26;;;;;;;9.50;2.90;;;;;;;20.78;33.38;102002.00;16119868;19;130346;-44
2023/06/02 13:10:48;;;;;;;15.90;3.17;;;;;;;20.77;32.76;101998.38;16112387;19;129873;-44
2023/06/02 13:16:10;;;;;;;9.05;2.80;;;;;;;20.77;33.04;102000.28;16115744;19;130719;-43
2023/06/02 13:21:33;;;;;;;12.98;3.17;;;;;;;20.75;32.51;101998.59;16118650;19;129520;-45
2023/06/02 13:26:55;;;;;;;12.50;3.05;;;;;;;20.75;32.58;101992.16;16118130;19;131042;-47
2023/06/02 13:32:17;;;;;;;10.35;2.35;;;;;;;20.76;32.49;101991.13;16113966;19;129977;-43
2023/06/02 13:37:39;;;;;;;16.88;2.53;;;;;;;20.75;32.61;101983.81;16114229;19;130279;-47
2023/06/02 13:43:01;;;;;;;14.20;3.13;;;;;;;20.75;32.60;101989.38;16116700;19;131511;-44
2023/06/02 13:48:23;;;;;;;9.95;2.75;;;;;;;20.74;32.84;101994.06;16117046;19;129881;-47
2023/06/02 13:53:45;;;;;;;13.27;2.72;;;;;;;20.74;32.74;101987.69;16115799;19;129606;-48
2023/06/02 13:59:07;;;;;;;16.77;3.47;;;;;;;20.73;32.41;101985.97;16111180;19;131361;-46
2023/06/02 14:04:29;;;;;;;9.15;2.58;;;;;;;20.74;32.68;101994.06;16111315;19;134663;-44
2023/06/02 14:09:51;;;;;;;15.52;2.90;;;;;;;20.77;32.53;101987.25;16113987;19;130514;-43
2023/06/02 14:15:13;;;;;;;10.65;2.67;;;;;;;20.74;32.34;101988.50;16113042;19;129307;-46
2023/06/02 14:20:35;;;;;;;9.85;2.67;;;;;;;20.75;32.65;101983.81;16109660;19;130379;-43
2023/06/02 14:25:57;;;;;;;11.88;3.28;;;;;;;20.78;32.71;101972.25;16114512;19;130038;-48
2023/06/02 14:31:19;;;;;;;7.03;2.70;;;;;;;20.78;32.92;101985.31;16108167;19;131143;-45
2023/06/02 14:36:41;;;;;;;12.20;2.67;;;;;;;20.76;33.17;101971.66;16110754;19;130871;-45
2023/06/02 14:42:03;;;;;;;15.57;2.72;;;;;;;20.74;33.33;101973.78;16101392;19;131210;-48
2023/06/02 14:47:25;;;;;;;24.95;3.45;;;;;;;20.68;33.33;101969.13;16102356;19;129586;-47
2023/06/02 14:52:47;;;;;;;17.38;3.38;;;;;;;20.67;33.13;101971.09;16111742;19;129719;-45
2023/06/02 14:58:09;;;;;;;16.80;3.22;;;;;;;20.69;33.20;101951.38;16104635;19;130074;-45
2023/06/02 15:03:31;;;;;;;13.25;2.80;;;;;;;20.68;33.67;101961.66;16106203;19;129917;-46
2023/06/02 15:08:54;;;;;;;15.77;3.53;;;;;;;20.68;33.41;101953.31;16110542;19;132907;-47
2023/06/02 15:14:15;;;;;;;18.10;2.90;;;;;;;20.70;33.46;101942.81;16097863;19;130153;-46
2023/06/02 15:19:38;;;;;;;9.82;2.90;;;;;;;20.70;33.38;101941.94;16097446;19;131299;-45
2023/06/02 15:25:00;;;;;;;11.57;2.67;;;;;;;20.73;33.31;101947.06;16108010;19;130889;-47
2023/06/02 15:30:22;;;;;;;12.02;2.75;;;;;;;20.70;33.40;101941.94;16099624;19;130448;-48
2023/06/02 15:35:44;;;;;;;15.27;4.03;;;;;;;20.71;33.60;101933.41;16105547;19;132068;-47
2023/06/02 15:41:06;;;;;;;13.40;3.20;;;;;;;20.71;33.89;101929.75;16094622;19;130916;-45
2023/06/02 15:46:28;;;;;;;14.88;3.03;;;;;;;20.72;33.45;101923.09;16097808;19;130475;-48
2023/06/02 15:51:54;;;;;;;9.90;2.63;;;;;;;20.75;33.45;101930.97;16097625;19;129941;-43
2023/06/02 15:57:15;;;;;;;12.90;3.15;;;;;;;20.77;33.56;101922.41;16102767;19;131016;-46
2023/06/02 16:02:37;;;;;;;15.85;3.03;;;;;;;20.78;33.93;101918.56;16105140;19;131162;-48
2023/06/02 16:07:59;;;;;;;23.10;3.85;;;;;;;20.79;33.79;101917.47;16106495;19;130833;-45
2023/06/02 16:13:21;;;;;;;14.63;3.38;;;;;;;20.80;33.84;101928.34;16100045;19;130655;-44
2023/06/02 16:18:45;;;;;;;16.45;3.42;;;;;;;20.82;34.07;101923.41;16107472;19;131313;-41
2023/06/02 16:24:07;;;;;;;12.00;3.28;;;;;;;20.84;34.03;101918.47;16117893;19;129640;-42
2023/06/02 16:29:28;;;;;;;19.80;3.33;;;;;;;20.82;33.97;101922.56;16117438;19;130843;-46
2023/06/02 16:34:51;;;;;;;11.82;3.10;;;;;;;20.79;34.18;101923.03;16120855;19;130578;-46
2023/06/02 16:40:13;;;;;;;18.98;3.53;;;;;;;20.77;34.06;101917.72;16114791;19;129846;-47
2023/06/02 16:45:35;;;;;;;11.48;3.10;;;;;;;20.75;34.04;101917.06;16116273;19;129923;-44
2023/06/02 16:50:57;;;;;;;11.00;2.92;;;;;;;20.71;34.10;101918.63;16115675;19;130728;-44
2023/06/02 16:56:19;;;;;;;13.73;3.05;;;;;;;20.68;33.83;101916.31;16116660;19;131952;-44
2023/06/02 17:01:40;;;;;;;16.85;3.03;;;;;;;20.69;34.11;101906.88;16115782;19;130098;-45
2023/06/02 17:07:04;;;;;;;19.05;3.70;;;;;;;20.71;33.95;101913.06;16113358;19;129868;-44
2023/06/02 17:12:26;;;;;;;19.25;3.08;;;;;;;20.71;33.85;101922.28;16113096;19;130321;-43
2023/06/02 17:17:48;;;;;;;18.40;3.08;;;;;;;20.73;33.84;101913.69;16113782;19;129697;-46
2023/06/02 17:23:10;;;;;;;19.10;2.85;;;;;;;20.73;33.92;101914.53;16110623;19;129865;-44
2023/06/02 17:28:32;;;;;;;14.98;2.70;;;;;;;20.72;34.29;101911.97;16106993;19;130973;-43
2023/06/02 17:33:54;;;;;;;31.38;3.70;;;;;;;20.73;34.19;101905.34;16107873;19;129493;-43
2023/06/02 17:39:16;;;;;;;16.58;2.70;;;;;;;20.77;34.05;101914.09;16110233;19;132639;-43
2023/06/02 17:44:42;;;;;;;23.33;3.40;;;;;;;20.78;34.38;101919.41;16116434;19;130306;-42
2023/06/02 17:50:05;;;;;;;20.83;3.95;;;;;;;20.79;33.86;101911.91;16113252;19;129783;-44
2023/06/02 17:55:27;;;;;;;17.40;3.45;;;;;;;20.82;34.43;101917.00;16106856;19;129937;-43
2023/06/02 18:00:49;;;;;;;15.70;2.92;;;;;;;20.81;34.03;101915.31;16108966;19;135365;-46
2023/06/02 18:06:12;;;;;;;18.35;3.25;;;;;;;20.82;34.38;101901.16;16112193;19;131021;-44
2023/06/02 18:11:34;;;;;;;18.88;3.33;;;;;;;20.84;34.18;101898.16;16112586;19;131964;-46
2023/06/02 18:16:56;;;;;;;15.40;2.90;;;;;;;20.86;34.97;101913.50;16108198;19;131204;-45
2023/06/02 18:22:18;;;;;;;11.95;2.72;;;;;;;20.86;34.97;101909.91;16112379;19;130976;-43
2023/06/02 18:27:41;;;;;;;20.52;2.78;;;;;;;20.84;35.03;101910.13;16106054;19;129378;-43
2023/06/02 18:33:02;;;;;;;14.38;3.10;;;;;;;20.84;35.06;101915.69;16111018;19;129438;-43
2023/06/02 18:38:24;;;;;;;16.05;2.92;;;;;;;20.81;35.18;101913.38;16112120;19;130375;-41
2023/06/02 18:43:46;;;;;;;10.60;2.53;;;;;;;20.80;34.98;101913.63;16110488;19;129879;-46
2023/06/02 18:49:08;;;;;;;17.10;2.75;;;;;;;20.76;35.56;101907.69;16116176;19;128927;-44
2023/06/02 18:54:30;;;;;;;8.98;2.55;;;;;;;20.74;35.42;101912.59;16111024;19;130353;-48
2023/06/02 18:59:52;;;;;;;12.38;2.83;;;;;;;20.73;35.22;101913.69;16106833;19;130419;-45
2023/06/02 19:05:14;;;;;;;14.18;2.80;;;;;;;20.74;35.51;101915.38;16109833;19;133799;-41
2023/06/02 19:10:36;;;;;;;13.00;2.55;;;;;;;20.75;35.84;101911.53;16111057;19;131317;-43
2023/06/02 19:15:58;;;;;;;9.68;2.63;;;;;;;20.77;35.72;101919.63;16103615;19;129782;-46
2023/06/02 19:21:20;;;;;;;11.95;2.38;;;;;;;20.71;35.47;101913.94;16100966;19;131711;-47
2023/06/02 19:26:43;;;;;;;21.52;3.33;;;;;;;20.68;35.81;101928.28;16104459;19;129331;-43
2023/06/02 19:32:06;;;;;;;8.55;2.20;;;;;;;20.65;35.97;101928.75;16094713;19;131397;-43
2023/06/02 19:37:28;;;;;;;12.50;2.15;;;;;;;20.64;35.78;101920.66;16107982;19;130975;-45
2023/06/02 19:42:49;;;;;;;17.00;3.03;;;;;;;20.60;35.86;101918.34;16105636;19;132900;-47
2023/06/02 19:48:11;;;;;;;14.55;3.25;;;;;;;20.58;35.65;101925.25;16102723;19;129879;-43
2023/06/02 19:53:33;;;;;;;9.98;2.70;;;;;;;20.56;36.11;101924.63;16107957;19;129681;-43
2023/06/02 19:58:55;;;;;;;21.85;3.58;;;;;;;20.53;35.90;101925.94;16113280;19;129742;-44
2023/06/02 20:04:18;;;;;;;12.23;2.90;;;;;;;20.53;35.85;101930.66;16120515;19;130234;-45
2023/06/02 20:09:39;;;;;;;12.15;2.67;;;;;;;20.49;36.08;101924.72;16122711;19;129857;-48
2023/06/02 20:15:02;;;;;;;23.17;3.13;;;;;;;20.51;36.20;101936.44;16118649;19;129697;-45
2023/06/02 20:20:24;;;;;;;13.80;2.80;;;;;;;20.50;36.53;101943.09;16122690;19;131549;-44
2023/06/02 20:25:46;;;;;;;15.95;2.58;;;;;;;20.50;36.79;101948.66;16118440;19;129995;-44
2023/06/02 20:31:08;;;;;;;20.95;2.97;;;;;;;20.49;36.73;101946.13;16124014;19;130285;-43
2023/06/02 20:36:30;;;;;;;19.27;3.25;;;;;;;20.48;36.74;101953.59;16122868;19;129553;-47
2023/06/02 20:41:55;;;;;;;21.25;3.30;;;;;;;20.49;36.82;101954.44;16114478;19;131425;-42
2023/06/02 20:47:17;;;;;;;11.13;2.53;;;;;;;20.46;37.10;101947.41;16122659;19;129725;-50
2023/06/02 20:52:39;;;;;;;11.02;2.67;;;;;;;20.45;37.31;101951.28;16114595;19;129855;-42
2023/06/02 20:58:01;;;;;;;12.65;2.50;;;;;;;20.43;36.91;101948.75;16118574;19;129474;-48
2023/06/02 21:03:23;;;;;;;12.05;2.45;;;;;;;20.42;37.42;101957.31;16108396;19;131389;-45
2023/06/02 21:08:46;;;;;;;6.18;2.33;;;;;;;20.41;37.19;101966.75;16115888;19;129334;-43
2023/06/02 21:14:08;;;;;;;11.65;2.80;;;;;;;20.39;37.36;101960.56;16113998;19;130144;-48
2023/06/02 21:19:30;;;;;;;8.73;2.33;;;;;;;20.38;37.41;101964.41;16114032;19;130107;-43
2023/06/02 21:24:52;;;;;;;12.57;2.60;;;;;;;20.37;37.31;101971.06;16117561;19;129924;-47
2023/06/02 21:30:14;;;;;;;8.55;2.70;;;;;;;20.36;37.22;101969.34;16110987;19;134475;-42
2023/06/02 21:35:36;;;;;;;13.45;2.83;;;;;;;20.34;37.26;101977.94;16109390;19;132103;-46
2023/06/02 21:40:58;;;;;;;7.57;2.50;;;;;;;20.33;37.35;101964.25;16111127;19;131172;-47
2023/06/02 21:46:20;;;;;;;9.80;3.03;;;;;;;20.34;37.29;101974.28;16114519;19;130446;-46
2023/06/02 21:51:42;;;;;;;10.43;2.63;;;;;;;20.33;37.53;101967.03;16112064;19;131117;-46
2023/06/02 21:57:05;;;;;;;7.95;2.10;;;;;;;20.32;37.48;101962.56;16112676;19;130733;-46
2023/06/02 22:02:29;;;;;;;10.48;2.60;;;;;;;20.29;37.18;101969.44;16110841;19;130373;-43
2023/06/02 22:07:52;;;;;;;8.38;1.80;;;;;;;20.28;37.47;101962.16;16112640;19;129616;-47
2023/06/02 22:13:16;;;;;;;10.20;2.42;;;;;;;20.26;37.37;101959.63;16109692;19;131673;-42
2023/06/02 22:18:37;;;;;;;8.90;2.28;;;;;;;20.24;37.17;101964.56;16111168;19;131825;-49
2023/06/02 22:23:59;;;;;;;8.80;2.80;;;;;;;20.24;37.18;101970.13;16109311;19;129551;-43
2023/06/02 22:29:29;;;;;;;8.65;1.75;;;;;;;20.23;37.21;101965.66;16103580;19;129431;-48
2023/06/02 22:34:51;;;;;;;11.38;2.45;;;;;;;20.23;37.42;101957.31;16106878;19;129276;-46
2023/06/02 22:40:13;;;;;;;10.05;2.45;;;;;;;20.22;37.64;101958.41;16108354;19;130557;-45
2023/06/02 22:45:35;;;;;;;7.15;2.45;;;;;;;20.22;37.61;101965.91;16111006;19;130557;-44
2023/06/02 22:50:57;;;;;;;15.35;3.08;;;;;;;20.21;37.34;101969.75;16103624;19;131254;-46
2023/06/02 22:56:19;;;;;;;7.38;2.38;;;;;;;20.19;37.82;101969.97;16108758;19;129474;-42
2023/06/02 23:01:41;;;;;;;10.40;2.60;;;;;;;20.18;37.66;101962.75;16106077;19;130784;-42
2023/06/02 23:07:03;;;;;;;8.60;2.50;;;;;;;20.17;37.21;101972.16;16108337;19;131146;-44
2023/06/02 23:12:25;;;;;;;8.38;2.05;;;;;;;20.14;37.92;101969.81;16106908;19;129754;-44
2023/06/02 23:17:47;;;;;;;7.65;2.40;;;;;;;20.14;37.40;101972.59;16104131;19;131318;-42
2023/06/02 23:23:09;;;;;;;8.18;2.47;;;;;;;20.11;37.70;101978.63;16105567;19;129409;-43
2023/06/02 23:28:31;;;;;;;9.40;2.28;;;;;;;20.10;37.62;101975.00;16113514;19;130734;-45
2023/06/02 23:33:53;;;;;;;6.63;2.42;;;;;;;20.09;37.49;101966.88;16118091;19;131059;-44
2023/06/02 23:39:15;;;;;;;7.53;2.55;;;;;;;20.08;37.65;101967.97;16123448;19;131970;-42
2023/06/02 23:44:37;;;;;;;7.40;2.33;;;;;;;20.06;38.07;101965.44;16118553;19;131093;-46
2023/06/02 23:49:59;;;;;;;6.50;1.92;;;;;;;20.06;37.93;101964.59;16118471;19;131002;-45
2023/06/02 23:55:21;;;;;;;9.55;2.28;;;;;;;20.05;37.69;101979.56;16115849;19;129867;-42
